Time;durP1;ratioP1;P1;durP2;ratioP2;P2;SDS_P1;SDS_P2;PMS_P1;PMS_P2;Temp;Humidity;BMP_temperature;BMP_pressure;BME280_temperature;BME280_humidity;BME280_pressure;Samples;Min_cycle;Max_cycle;Signal;HPM_P1;HPM_P2
2023/04/14 00:00:32;;;;;;;2.60;0.95;;;5.30;99.90;;;;;;5025362;28;20266;-77
2023/04/14 00:02:59;;;;;;;2.92;0.90;;;5.30;99.90;;;;;;5026342;28;20024;-77
2023/04/14 00:05:30;;;;;;;6.15;1.27;;;5.20;99.90;;;;;;5006739;28;20044;-77
2023/04/14 00:07:57;;;;;;;3.20;1.00;;;5.20;99.90;;;;;;5047202;28;20024;-77
2023/04/14 00:10:23;;;;;;;4.82;0.77;;;5.20;99.90;;;;;;5027641;28;21195;-76
2023/04/14 00:12:50;;;;;;;4.35;1.02;;;5.10;99.90;;;;;;5008608;28;20036;-77
2023/04/14 00:15:17;;;;;;;4.47;0.82;;;5.10;99.90;;;;;;5019850;28;20082;-77
2023/04/14 00:17:43;;;;;;;4.82;1.23;;;5.10;99.90;;;;;;5047734;28;20040;-77
2023/04/14 00:20:10;;;;;;;3.55;0.80;;;5.00;99.90;;;;;;5024215;28;20461;-77
2023/04/14 00:22:36;;;;;;;7.20;1.30;;;5.00;99.90;;;;;;5028554;28;20029;-77
2023/04/14 00:25:02;;;;;;;2.22;0.65;;;5.00;99.90;;;;;;5039892;28;20043;-77
2023/04/14 00:27:30;;;;;;;4.78;0.73;;;4.90;99.90;;;;;;5027889;28;20276;-76
2023/04/14 00:29:56;;;;;;;2.33;0.93;;;4.80;99.90;;;;;;5046416;28;20437;-77
2023/04/14 00:32:22;;;;;;;2.65;0.57;;;4.80;99.90;;;;;;5012992;28;20434;-77
2023/04/14 00:34:49;;;;;;;2.40;0.57;;;4.80;99.90;;;;;;5005825;28;20033;-77
2023/04/14 00:37:15;;;;;;;0.77;0.30;;;4.70;99.90;;;;;;5027465;28;20394;-76
2023/04/14 00:39:41;;;;;;;1.40;0.40;;;4.70;99.90;;;;;;5029639;28;20040;-76
2023/04/14 00:42:08;;;;;;;2.92;0.50;;;4.70;99.90;;;;;;5028474;28;20041;-76
2023/04/14 00:44:34;;;;;;;1.70;0.50;;;4.70;99.90;;;;;;5040578;28;20517;-77
2023/04/14 00:47:01;;;;;;;2.42;0.60;;;4.60;99.90;;;;;;5036950;28;20762;-76
2023/04/14 00:49:27;;;;;;;2.55;0.60;;;4.60;99.90;;;;;;5048562;28;20827;-76
2023/04/14 00:51:55;;;;;;;2.08;0.70;;;4.60;99.90;;;;;;5028224;28;20452;-76
2023/04/14 00:54:22;;;;;;;4.00;0.60;;;4.60;99.90;;;;;;4992605;28;20040;-76
2023/04/14 00:56:53;;;;;;;3.42;0.70;;;4.60;99.90;;;;;;5010445;28;20039;-76
2023/04/14 00:59:19;;;;;;;2.00;0.70;;;4.60;99.90;;;;;;5047681;28;20036;-76
2023/04/14 01:01:47;;;;;;;3.83;0.63;;;4.50;99.90;;;;;;5024871;28;20116;-76
2023/04/14 01:04:15;;;;;;;3.03;0.90;;;4.50;99.90;;;;;;5039264;28;20498;-77
2023/04/14 01:06:41;;;;;;;3.58;0.60;;;4.50;99.90;;;;;;5013156;28;20428;-76
2023/04/14 01:09:08;;;;;;;3.97;0.85;;;4.50;99.90;;;;;;5045034;28;20025;-76
2023/04/14 01:11:55;;;;;;;5.80;0.85;;;4.40;99.90;;;;;;5014592;28;20048;-76
2023/04/14 01:14:36;;;;;;;2.15;0.57;;;4.40;99.90;;;;;;5036981;28;20071;-77
2023/04/14 01:17:12;;;;;;;3.63;0.80;;;4.40;99.90;;;;;;5025846;28;20410;-76
2023/04/14 01:20:10;;;;;;;2.43;0.80;;;4.40;99.90;;;;;;5047163;28;20443;-77
2023/04/14 01:22:43;;;;;;;4.47;0.87;;;4.40;99.90;;;;;;5024690;28;20036;-76
2023/04/14 01:25:30;;;;;;;2.03;1.08;;;4.40;99.90;;;;;;5002168;28;20039;-76
2023/04/14 01:28:30;;;;;;;2.50;1.00;;;4.30;99.90;;;;;;5012602;28;20044;-76
2023/04/14 01:31:20;;;;;;;3.80;1.13;;;4.30;99.90;;;;;;5011909;28;20024;-77
2023/04/14 01:33:54;;;;;;;2.35;0.73;;;4.30;99.90;;;;;;5022884;28;20037;-76
2023/04/14 01:36:27;;;;;;;2.73;0.80;;;4.30;99.90;;;;;;5027335;28;20032;-76
2023/04/14 01:38:56;;;;;;;4.32;1.10;;;4.20;99.90;;;;;;5022148;28;20024;-76
2023/04/14 01:41:27;;;;;;;1.77;0.90;;;4.20;99.90;;;;;;5040363;28;20024;-76
2023/04/14 01:43:54;;;;;;;3.85;1.00;;;4.20;99.90;;;;;;5004237;28;20048;-76
2023/04/14 01:46:21;;;;;;;7.80;1.23;;;4.20;99.90;;;;;;5045795;28;20029;-77
2023/04/14 01:48:49;;;;;;;4.28;1.50;;;4.10;99.90;;;;;;5027215;28;20092;-76
2023/04/14 01:51:18;;;;;;;3.42;1.55;;;4.10;99.90;;;;;;5027386;28;20036;-75
2023/04/14 01:53:46;;;;;;;5.53;1.10;;;4.10;99.90;;;;;;5006381;28;20059;-76
2023/04/14 01:56:15;;;;;;;3.87;1.00;;;4.10;99.90;;;;;;5007341;28;20036;-75
2023/04/14 01:58:45;;;;;;;3.78;1.50;;;4.10;99.90;;;;;;5028563;28;20028;-76
2023/04/14 02:01:12;;;;;;;4.35;1.55;;;4.10;99.90;;;;;;5009978;28;20039;-76
2023/04/14 02:03:39;;;;;;;6.07;1.30;;;4.10;99.90;;;;;;5022323;28;20029;-76
2023/04/14 02:06:07;;;;;;;4.97;1.70;;;4.10;99.90;;;;;;5023704;28;20037;-76
2023/04/14 02:08:39;;;;;;;3.13;1.30;;;4.10;99.90;;;;;;5011921;28;20447;-77
2023/04/14 02:11:08;;;;;;;3.50;1.27;;;4.10;99.90;;;;;;5010328;28;20041;-76
2023/04/14 02:13:36;;;;;;;6.07;1.40;;;4.10;99.90;;;;;;5039426;28;20324;-76
2023/04/14 02:16:05;;;;;;;4.53;1.92;;;4.10;99.90;;;;;;5009045;28;20019;-76
2023/04/14 02:18:32;;;;;;;3.43;1.40;;;4.10;99.90;;;;;;5027440;28;20410;-76
2023/04/14 02:21:02;;;;;;;4.03;1.43;;;4.10;99.90;;;;;;5026282;28;20041;-74
2023/04/14 02:23:30;;;;;;;3.08;1.20;;;4.00;99.90;;;;;;5005472;28;20560;-75
2023/04/14 02:26:15;;;;;;;4.30;1.67;;;4.00;99.90;;;;;;5047083;28;20035;-76
2023/04/14 02:28:53;;;;;;;2.33;1.23;;;4.00;99.90;;;;;;5050038;28;20032;-76
2023/04/14 02:31:22;;;;;;;3.70;2.03;;;3.90;99.90;;;;;;5050503;28;20016;-75
2023/04/14 02:33:54;;;;;;;4.57;1.92;;;3.90;99.90;;;;;;5025143;28;20059;-76
2023/04/14 02:36:31;;;;;;;3.17;1.30;;;3.90;99.90;;;;;;5013892;28;20033;-75
2023/04/14 02:39:02;;;;;;;2.97;1.27;;;3.90;99.90;;;;;;5030397;28;20709;-77
2023/04/14 02:41:31;;;;;;;4.72;1.63;;;3.90;99.90;;;;;;5027632;28;20036;-75
2023/04/14 02:44:26;;;;;;;5.17;2.00;;;3.80;99.90;;;;;;5021266;28;20032;-75
2023/04/14 02:47:25;;;;;;;2.93;1.30;;;3.80;99.90;;;;;;5033763;28;20177;-76
2023/04/14 02:49:57;;;;;;;5.53;1.37;;;3.80;99.90;;;;;;5000292;28;20025;-77
2023/04/14 02:52:28;;;;;;;3.53;1.23;;;3.70;99.90;;;;;;5016784;28;20043;-77
2023/04/14 02:54:56;;;;;;;5.23;1.40;;;3.70;99.90;;;;;;5003638;28;20009;-76
2023/04/14 02:57:25;;;;;;;2.73;1.27;;;3.70;99.90;;;;;;5032300;28;20045;-76
2023/04/14 02:59:53;;;;;;;2.10;1.10;;;3.70;99.90;;;;;;5010664;28;20494;-76
2023/04/14 03:02:21;;;;;;;2.97;1.37;;;3.70;99.90;;;;;;5014629;28;20043;-77
2023/04/14 03:04:57;;;;;;;6.63;1.50;;;3.70;99.90;;;;;;5003670;28;20044;-77
2023/04/14 03:07:37;;;;;;;6.07;1.57;;;3.60;99.90;;;;;;4996041;28;20607;-76
2023/04/14 03:10:04;;;;;;;4.07;1.67;;;3.70;99.90;;;;;;4997349;28;20028;-76
2023/04/14 03:12:33;;;;;;;3.10;1.20;;;3.60;99.90;;;;;;5012394;28;20464;-77
2023/04/14 03:15:01;;;;;;;4.83;1.73;;;3.60;99.90;;;;;;5004523;28;20040;-76
2023/04/14 03:17:29;;;;;;;3.70;1.10;;;3.60;99.90;;;;;;5011776;28;20044;-76
2023/04/14 03:19:56;;;;;;;3.37;1.33;;;3.60;99.90;;;;;;5011737;28;20597;-76
2023/04/14 03:22:26;;;;;;;3.70;1.50;;;3.60;99.90;;;;;;5027555;28;20036;-76
2023/04/14 03:24:57;;;;;;;4.73;1.60;;;3.60;99.90;;;;;;5003823;28;20044;-76
2023/04/14 03:27:26;;;;;;;4.47;1.57;;;3.60;99.90;;;;;;4997090;28;20025;-76
2023/04/14 03:29:59;;;;;;;3.47;1.60;;;3.60;99.90;;;;;;5028541;28;20040;-76
2023/04/14 03:32:34;;;;;;;1.70;1.10;;;3.60;99.90;;;;;;5013478;28;20494;-75
2023/04/14 03:35:01;;;;;;;4.33;1.30;;;3.60;99.90;;;;;;5009243;28;20041;-76
2023/04/14 03:37:30;;;;;;;4.40;1.53;;;3.60;99.90;;;;;;5028345;28;20590;-76
2023/04/14 03:40:00;;;;;;;3.07;1.47;;;3.50;99.90;;;;;;5047655;28;20032;-76
2023/04/14 03:42:32;;;;;;;4.80;1.60;;;3.50;99.90;;;;;;5025981;28;20036;-77
2023/04/14 03:45:01;;;;;;;2.27;1.43;;;3.50;99.90;;;;;;4989330;28;20479;-76
2023/04/14 03:47:31;;;;;;;3.90;1.75;;;3.50;99.90;;;;;;5012639;28;20032;-76
2023/04/14 03:50:00;;;;;;;3.50;1.23;;;3.50;99.90;;;;;;5011812;28;20627;-76
2023/04/14 03:52:32;;;;;;;6.13;2.17;;;3.40;99.90;;;;;;5025916;28;20036;-76
2023/04/14 03:55:05;;;;;;;5.00;1.97;;;3.40;99.90;;;;;;5020466;28;20041;-76
2023/04/14 03:57:33;;;;;;;5.88;1.60;;;3.40;99.90;;;;;;5012305;28;20067;-76
2023/04/14 04:00:03;;;;;;;3.70;1.70;;;3.40;99.90;;;;;;5006794;28;20123;-76
2023/04/14 04:02:41;;;;;;;3.33;1.40;;;3.40;99.90;;;;;;5047932;28;20037;-75
2023/04/14 04:05:09;;;;;;;5.10;1.83;;;3.40;99.90;;;;;;5020981;28;20032;-76
2023/04/14 04:07:37;;;;;;;3.70;1.50;;;3.40;99.90;;;;;;5013340;28;20039;-76
2023/04/14 04:10:06;;;;;;;5.13;2.37;;;3.40;99.90;;;;;;5013460;28;20595;-76
2023/04/14 04:12:34;;;;;;;3.90;2.30;;;3.30;99.90;;;;;;5013479;28;20028;-75
2023/04/14 04:15:02;;;;;;;3.03;2.03;;;3.30;99.90;;;;;;5005704;28;20044;-75
2023/04/14 04:17:31;;;;;;;3.93;1.60;;;3.30;99.90;;;;;;5015782;28;20059;-75
2023/04/14 04:20:00;;;;;;;4.27;1.53;;;3.30;99.90;;;;;;5026155;28;20041;-75
2023/04/14 04:22:29;;;;;;;3.90;2.07;;;3.20;99.90;;;;;;4990931;28;20055;-76
2023/04/14 04:24:56;;;;;;;4.87;2.33;;;3.20;99.90;;;;;;5020304;28;20055;-76
2023/04/14 04:27:28;;;;;;;4.20;2.05;;;3.20;99.90;;;;;;5009329;28;20025;-75
2023/04/14 04:29:58;;;;;;;4.20;2.33;;;3.20;99.90;;;;;;5013067;28;20043;-76
2023/04/14 04:32:25;;;;;;;7.00;3.87;;;3.20;99.90;;;;;;5028501;28;20032;-76
2023/04/14 04:34:52;;;;;;;6.17;2.83;;;3.10;99.90;;;;;;5004412;28;20055;-76
2023/04/14 04:37:20;;;;;;;7.10;2.57;;;3.10;99.90;;;;;;5026469;28;20032;-76
2023/04/14 04:39:47;;;;;;;3.77;2.47;;;3.10;99.90;;;;;;5013494;28;20032;-75
2023/04/14 04:42:15;;;;;;;4.90;2.40;;;3.00;99.90;;;;;;5013523;28;20016;-77
2023/04/14 04:44:41;;;;;;;5.60;2.13;;;3.00;99.90;;;;;;5025174;28;20032;-75
2023/04/14 04:47:09;;;;;;;4.97;2.20;;;3.10;99.90;;;;;;5014980;28;20029;-76
2023/04/14 04:49:37;;;;;;;4.30;2.23;;;3.10;99.90;;;;;;5013803;28;20029;-75
2023/04/14 04:52:03;;;;;;;5.50;2.27;;;3.10;99.90;;;;;;5027688;28;20023;-75
2023/04/14 04:54:30;;;;;;;4.43;2.00;;;3.10;99.90;;;;;;5002510;28;23140;-76
2023/04/14 04:56:58;;;;;;;4.67;1.87;;;3.10;99.90;;;;;;5027646;28;20043;-76
2023/04/14 04:59:25;;;;;;;3.57;1.70;;;3.10;99.90;;;;;;5011507;28;20503;-75
2023/04/14 05:01:51;;;;;;;4.63;2.60;;;3.10;99.90;;;;;;5013275;28;20377;-75
2023/04/14 05:04:18;;;;;;;4.37;2.37;;;3.10;99.90;;;;;;5038043;28;20044;-75
2023/04/14 05:06:44;;;;;;;4.63;2.20;;;3.10;99.90;;;;;;5045254;28;20029;-75
2023/04/14 05:09:10;;;;;;;4.50;2.30;;;3.10;99.90;;;;;;5011049;28;20048;-76
2023/04/14 05:11:37;;;;;;;5.07;2.17;;;3.10;99.90;;;;;;5045664;28;20464;-75
2023/04/14 05:14:03;;;;;;;5.60;2.40;;;3.10;99.90;;;;;;5018233;28;20040;-75
2023/04/14 05:16:30;;;;;;;4.10;2.43;;;3.20;99.90;;;;;;5047261;28;20028;-76
2023/04/14 05:18:56;;;;;;;5.77;2.43;;;3.20;99.90;;;;;;5021900;28;20040;-76
2023/04/14 05:21:23;;;;;;;5.23;2.87;;;3.30;99.90;;;;;;4993294;28;20047;-77
2023/04/14 05:23:49;;;;;;;6.37;3.20;;;3.30;99.90;;;;;;5023180;28;20037;-75
2023/04/14 05:26:16;;;;;;;4.40;2.80;;;3.40;99.90;;;;;;5026167;28;20040;-75
2023/04/14 05:28:42;;;;;;;6.33;3.40;;;3.60;99.90;;;;;;5025946;28;20036;-76
2023/04/14 05:31:09;;;;;;;5.37;2.83;;;3.70;99.90;;;;;;5046632;28;20035;-76
2023/04/14 05:33:35;;;;;;;5.00;2.77;;;3.80;99.90;;;;;;5006225;28;21568;-76
2023/04/14 05:36:02;;;;;;;5.93;2.97;;;3.90;99.90;;;;;;5041864;28;20052;-76
2023/04/14 05:38:28;;;;;;;6.00;2.90;;;4.00;99.90;;;;;;5025791;28;20041;-76
2023/04/14 05:40:54;;;;;;;4.83;2.80;;;4.10;99.90;;;;;;5026086;28;20044;-76
2023/04/14 05:43:20;;;;;;;8.20;2.37;;;4.10;99.90;;;;;;5016239;28;20388;-76
2023/04/14 05:45:47;;;;;;;5.73;2.87;;;4.20;99.90;;;;;;5038912;28;20064;-76
2023/04/14 05:48:15;;;;;;;5.37;2.23;;;4.30;99.90;;;;;;5047011;28;20506;-76
2023/04/14 05:50:42;;;;;;;8.43;3.00;;;4.40;99.90;;;;;;5027642;28;20044;-76
2023/04/14 05:53:08;;;;;;;8.93;3.07;;;4.50;99.90;;;;;;4992317;28;20044;-76
2023/04/14 05:55:34;;;;;;;7.77;3.30;;;4.60;99.90;;;;;;5040784;28;20609;-77
2023/04/14 05:58:00;;;;;;;7.50;2.63;;;4.70;99.90;;;;;;5046193;28;20044;-76
2023/04/14 06:00:27;;;;;;;8.45;2.72;;;4.80;99.90;;;;;;5027723;28;20467;-82
2023/04/14 06:02:54;;;;;;;8.57;2.53;;;5.00;99.90;;;;;;5022088;28;20452;-81
2023/04/14 06:05:20;;;;;;;7.28;2.97;;;5.20;99.90;;;;;;5017750;28;20276;-81
2023/04/14 06:07:46;;;;;;;4.95;2.58;;;5.30;99.90;;;;;;5046439;28;20498;-80
2023/04/14 06:10:12;;;;;;;7.03;2.88;;;5.60;99.90;;;;;;5026834;28;20031;-82
2023/04/14 06:12:39;;;;;;;5.65;2.92;;;5.70;99.90;;;;;;5007117;28;20518;-77
2023/04/14 06:15:05;;;;;;;7.90;2.53;;;5.90;99.90;;;;;;5017725;28;20040;-80
2023/04/14 06:17:32;;;;;;;10.80;4.80;;;6.10;99.90;;;;;;5047315;28;20132;-76
2023/04/14 06:19:59;;;;;;;10.32;3.53;;;6.20;99.90;;;;;;4994299;28;20044;-80
2023/04/14 06:22:28;;;;;;;6.75;4.40;;;6.30;99.90;;;;;;5026564;28;20028;-80
2023/04/14 06:24:56;;;;;;;12.45;3.97;;;6.40;99.90;;;;;;5003975;28;20043;-81
2023/04/14 06:27:23;;;;;;;9.38;2.58;;;6.60;99.90;;;;;;5008829;28;20036;-76
2023/04/14 06:29:50;;;;;;;6.53;2.35;;;6.70;99.90;;;;;;5045091;28;20031;-79
2023/04/14 06:32:20;;;;;;;8.20;2.80;;;6.90;99.90;;;;;;5024625;28;20399;-82
2023/04/14 06:34:49;;;;;;;8.30;2.67;;;7.10;99.90;;;;;;5036338;28;20029;-79
2023/04/14 06:37:15;;;;;;;6.30;3.35;;;7.20;99.90;;;;;;5024777;28;20471;-78
2023/04/14 06:39:42;;;;;;;6.72;2.95;;;7.40;99.90;;;;;;5008463;28;20017;-78
2023/04/14 06:42:11;;;;;;;7.68;2.78;;;7.50;99.90;;;;;;5023846;28;20045;-78
2023/04/14 06:44:39;;;;;;;11.73;5.15;;;7.60;99.90;;;;;;5036947;28;20025;-77
2023/04/14 06:47:06;;;;;;;8.80;4.55;;;7.70;99.90;;;;;;5031668;28;20036;-77
2023/04/14 06:49:32;;;;;;;8.27;3.72;;;7.70;99.90;;;;;;5008335;28;20229;-78
2023/04/14 06:51:58;;;;;;;7.90;4.28;;;7.90;99.90;;;;;;5028048;28;20035;-77
2023/04/14 06:54:24;;;;;;;8.45;4.25;;;8.00;99.90;;;;;;5015736;28;20024;-77
2023/04/14 06:56:51;;;;;;;7.60;4.40;;;8.20;99.90;;;;;;5027245;28;20045;-77
2023/04/14 06:59:19;;;;;;;8.35;3.97;;;8.30;99.90;;;;;;5025346;28;20029;-78
2023/04/14 07:01:46;;;;;;;6.82;3.50;;;8.30;99.90;;;;;;5027188;28;20396;-77
2023/04/14 07:04:14;;;;;;;5.40;3.03;;;8.40;99.90;;;;;;5000101;28;23149;-78
2023/04/14 07:06:40;;;;;;;6.50;2.63;;;8.50;99.90;;;;;;5009711;28;20589;-78
2023/04/14 07:09:06;;;;;;;6.95;3.35;;;8.60;99.90;;;;;;5044334;28;20400;-77
2023/04/14 07:11:32;;;;;;;6.45;3.22;;;8.80;99.90;;;;;;5029098;28;20028;-78
2023/04/14 07:13:59;;;;;;;8.25;2.60;;;8.90;99.90;;;;;;5037420;28;20036;-78
2023/04/14 07:16:25;;;;;;;9.38;2.80;;;9.10;99.90;;;;;;5028333;28;20040;-78
2023/04/14 07:18:51;;;;;;;4.70;1.90;;;9.30;99.90;;;;;;5029272;28;20466;-79
2023/04/14 07:21:18;;;;;;;3.72;1.65;;;9.50;99.90;;;;;;5027126;28;20034;-80
2023/04/14 07:23:44;;;;;;;5.32;2.20;;;9.70;99.90;;;;;;5023710;28;20036;-78
2023/04/14 07:26:11;;;;;;;9.55;2.58;;;9.80;99.90;;;;;;5024301;28;20032;-77
2023/04/14 07:28:37;;;;;;;7.35;2.45;;;9.90;99.90;;;;;;5024599;28;20039;-78
2023/04/14 07:31:11;;;;;;;4.72;1.90;;;10.00;99.90;;;;;;5013845;28;20040;-79
2023/04/14 07:33:38;;;;;;;7.68;2.53;;;10.10;99.90;;;;;;5018793;28;20048;-78
2023/04/14 07:36:05;;;;;;;5.45;2.72;;;10.20;99.90;;;;;;5044062;28;20017;-79
2023/04/14 07:38:32;;;;;;;7.57;2.33;;;10.20;99.90;;;;;;5027543;28;20399;-79
2023/04/14 07:41:02;;;;;;;4.43;1.38;;;10.40;99.90;;;;;;5013245;28;20044;-78
2023/04/14 07:43:34;;;;;;;5.18;1.67;;;10.60;99.90;;;;;;5043319;28;20033;-78
2023/04/14 07:46:05;;;;;;;5.38;1.33;;;10.70;99.90;;;;;;5044180;28;20718;-77
2023/04/14 07:48:32;;;;;;;7.78;2.47;;;10.90;99.90;;;;;;5029593;28;20036;-77
2023/04/14 07:50:59;;;;;;;8.52;2.63;;;11.00;99.90;;;;;;5027737;28;20048;-79
2023/04/14 07:53:25;;;;;;;8.90;2.50;;;11.10;99.90;;;;;;5025024;28;20396;-77
2023/04/14 07:55:51;;;;;;;5.22;1.63;;;11.10;99.90;;;;;;5045604;28;20523;-77
2023/04/14 07:58:17;;;;;;;6.40;1.60;;;11.20;99.90;;;;;;5030279;28;20037;-76
2023/04/14 08:00:44;;;;;;;7.88;2.00;;;11.40;99.90;;;;;;5030432;28;20024;-76
2023/04/14 08:03:12;;;;;;;7.03;1.20;;;11.50;99.90;;;;;;5026263;28;20043;-76
2023/04/14 08:05:38;;;;;;;5.82;1.65;;;11.50;99.90;;;;;;5007393;28;20047;-77
2023/04/14 08:08:04;;;;;;;6.63;1.95;;;11.60;99.90;;;;;;5047739;28;20028;-76
2023/04/14 08:10:31;;;;;;;8.40;2.00;;;11.60;99.90;;;;;;5029912;28;20035;-76
2023/04/14 08:12:57;;;;;;;6.03;2.05;;;11.70;99.90;;;;;;5027725;28;20037;-77
2023/04/14 08:15:23;;;;;;;6.72;1.35;;;11.70;99.90;;;;;;4988749;28;20554;-77
2023/04/14 08:17:49;;;;;;;8.18;2.20;;;11.90;99.90;;;;;;4996545;28;20039;-77
2023/04/14 08:20:16;;;;;;;7.18;1.20;;;12.00;99.90;;;;;;5027537;28;20047;-76
2023/04/14 08:22:42;;;;;;;5.97;1.45;;;12.20;99.90;;;;;;5045867;28;20024;-76
2023/04/14 08:25:11;;;;;;;7.63;1.45;;;12.30;99.90;;;;;;5003090;28;20099;-77
2023/04/14 08:27:38;;;;;;;9.05;1.42;;;12.20;99.90;;;;;;5031171;28;20555;-77
2023/04/14 08:30:04;;;;;;;5.28;1.15;;;12.30;99.90;;;;;;5047886;28;20021;-76
2023/04/14 08:32:31;;;;;;;6.50;1.05;;;12.40;99.90;;;;;;5047459;28;20051;-77
2023/04/14 08:34:58;;;;;;;4.65;1.25;;;12.50;99.90;;;;;;5019229;28;20040;-78
2023/04/14 08:37:24;;;;;;;9.18;1.33;;;12.60;99.90;;;;;;5029101;28;20025;-77
2023/04/14 08:39:50;;;;;;;5.32;1.17;;;12.80;99.90;;;;;;5045178;28;20040;-75
2023/04/14 08:42:20;;;;;;;5.88;1.38;;;13.00;99.90;;;;;;5047374;28;20036;-77
2023/04/14 08:44:47;;;;;;;7.80;1.33;;;13.10;99.90;;;;;;5018744;28;20028;-77
2023/04/14 08:47:14;;;;;;;6.68;1.00;;;13.30;99.90;;;;;;5031868;28;20022;-77
2023/04/14 08:49:50;;;;;;;3.22;0.70;;;13.40;99.90;;;;;;5017724;28;20024;-77
2023/04/14 08:52:20;;;;;;;7.78;1.45;;;13.60;99.90;;;;;;5029419;28;20025;-77
2023/04/14 08:54:49;;;;;;;6.05;1.30;;;13.70;99.90;;;;;;5038909;28;20047;-76
2023/04/14 08:57:19;;;;;;;7.07;0.95;;;13.80;99.90;;;;;;5044996;28;20368;-77
2023/04/14 08:59:46;;;;;;;4.15;0.88;;;13.80;99.90;;;;;;5037353;28;20033;-78
2023/04/14 09:02:12;;;;;;;7.03;1.25;;;13.90;99.90;;;;;;5047158;28;20031;-76
2023/04/14 09:04:40;;;;;;;6.10;1.13;;;14.00;99.90;;;;;;5001197;28;20047;-76
2023/04/14 09:07:07;;;;;;;5.07;1.00;;;14.10;99.90;;;;;;4995947;28;20033;-77
2023/04/14 09:09:34;;;;;;;5.93;1.00;;;14.10;99.90;;;;;;5045543;28;20028;-76
2023/04/14 09:12:02;;;;;;;5.68;0.77;;;14.10;99.90;;;;;;5046127;28;20498;-77
2023/04/14 09:14:29;;;;;;;6.05;1.30;;;14.20;99.90;;;;;;5004984;28;20055;-77
2023/04/14 09:16:55;;;;;;;8.40;1.10;;;14.20;99.90;;;;;;5046395;28;20592;-75
2023/04/14 09:19:23;;;;;;;4.47;0.82;;;14.10;99.90;;;;;;5047687;28;20047;-77
2023/04/14 09:21:50;;;;;;;3.13;0.60;;;14.10;99.90;;;;;;5028692;28;20040;-76
2023/04/14 09:24:22;;;;;;;2.50;0.60;;;14.20;99.90;;;;;;5037473;28;20052;-76
2023/04/14 09:26:49;;;;;;;4.07;0.68;;;14.30;99.90;;;;;;5013603;28;20415;-77
2023/04/14 09:29:15;;;;;;;4.47;0.70;;;14.50;99.90;;;;;;5028545;28;20052;-76
2023/04/14 09:31:44;;;;;;;4.80;0.60;;;14.70;99.90;;;;;;5047089;28;20033;-77
2023/04/14 09:34:20;;;;;;;6.68;0.95;;;14.80;99.90;;;;;;5016480;28;20371;-77
2023/04/14 09:37:06;;;;;;;4.90;1.08;;;14.90;99.90;;;;;;5026529;28;20035;-75
2023/04/14 09:39:46;;;;;;;6.55;0.70;;;15.10;99.90;;;;;;5023662;28;20028;-77
2023/04/14 09:42:12;;;;;;;3.92;0.95;;;15.20;99.90;;;;;;5010435;28;20348;-77
2023/04/14 09:44:57;;;;;;;2.80;0.60;;;15.40;99.90;;;;;;5036119;28;20028;-76
2023/04/14 09:47:24;;;;;;;3.70;0.63;;;15.50;99.90;;;;;;5022872;28;20020;-76
2023/04/14 09:49:59;;;;;;;4.47;0.70;;;15.50;99.90;;;;;;5024730;28;20013;-77
2023/04/14 09:52:43;;;;;;;5.60;0.50;;;15.60;99.90;;;;;;5027146;28;20055;-76
2023/04/14 09:55:14;;;;;;;3.30;0.57;;;15.50;99.90;;;;;;5035032;28;20497;-76
2023/04/14 09:57:46;;;;;;;4.22;1.42;;;15.50;99.90;;;;;;5026753;28;20454;-76
2023/04/14 10:00:16;;;;;;;3.33;0.60;;;15.60;99.90;;;;;;5024834;28;20398;-77
2023/04/14 10:02:56;;;;;;;8.15;2.85;;;15.70;99.90;;;;;;5027063;28;20041;-77
2023/04/14 10:05:30;;;;;;;6.80;1.73;;;15.90;99.90;;;;;;5038236;28;20041;-76
2023/04/14 10:08:02;;;;;;;3.80;0.68;;;16.10;99.90;;;;;;5026877;28;20037;-77
2023/04/14 10:10:28;;;;;;;5.30;0.75;;;16.20;99.70;;;;;;5027195;28;20051;-79
2023/04/14 10:12:55;;;;;;;4.38;1.00;;;16.30;99.30;;;;;;5045277;28;20028;-79
2023/04/14 10:15:21;;;;;;;4.13;0.52;;;16.40;98.70;;;;;;5018115;28;20407;-77
2023/04/14 10:17:47;;;;;;;5.40;0.80;;;16.40;98.30;;;;;;5009581;28;20025;-78
2023/04/14 10:20:14;;;;;;;3.08;0.50;;;16.40;97.20;;;;;;5007314;28;20045;-78
2023/04/14 10:22:41;;;;;;;4.03;0.75;;;16.50;96.90;;;;;;5028627;28;20031;-78
2023/04/14 10:25:08;;;;;;;4.78;0.70;;;16.60;95.60;;;;;;5001363;28;20040;-77
2023/04/14 10:27:36;;;;;;;3.72;0.60;;;16.60;95.80;;;;;;5047407;28;20478;-76
2023/04/14 10:30:04;;;;;;;5.90;0.60;;;16.90;95.70;;;;;;5025740;28;20029;-80
2023/04/14 10:32:33;;;;;;;4.45;0.65;;;17.20;95.20;;;;;;5024366;28;20400;-79
2023/04/14 10:35:08;;;;;;;3.22;0.50;;;17.30;95.20;;;;;;4998911;28;20040;-76
2023/04/14 10:37:35;;;;;;;2.85;0.60;;;17.50;95.10;;;;;;5045438;28;20033;-79
2023/04/14 10:40:07;;;;;;;4.28;0.47;;;18.00;94.90;;;;;;5047139;28;20423;-76
2023/04/14 10:42:53;;;;;;;2.53;0.50;;;18.40;93.50;;;;;;5045403;28;20032;-76
2023/04/14 10:45:19;;;;;;;3.38;0.80;;;19.10;93.40;;;;;;5037702;28;20025;-76
2023/04/14 10:47:46;;;;;;;3.13;0.52;;;19.60;92.80;;;;;;5029208;28;20119;-76
2023/04/14 10:50:17;;;;;;;5.53;0.57;;;20.00;91.50;;;;;;5033171;28;20041;-78
2023/04/14 10:52:54;;;;;;;3.83;1.20;;;20.30;91.30;;;;;;5055248;28;20024;-77
2023/04/14 10:55:22;;;;;;;4.10;0.95;;;20.80;89.70;;;;;;5021693;28;20119;-77
2023/04/14 10:57:48;;;;;;;3.55;0.80;;;21.10;87.50;;;;;;5030765;28;20021;-76
2023/04/14 11:00:27;;;;;;;3.40;0.65;;;21.10;84.90;;;;;;5030439;28;20033;-77
2023/04/14 11:03:02;;;;;;;4.75;0.80;;;20.90;82.00;;;;;;5030500;28;20037;-75
2023/04/14 11:05:30;;;;;;;6.00;1.60;;;20.60;80.90;;;;;;5041607;28;20020;-78
2023/04/14 11:07:57;;;;;;;11.05;6.95;;;20.70;80.90;;;;;;5013755;28;20036;-77
2023/04/14 11:10:25;;;;;;;3.53;0.80;;;21.20;79.90;;;;;;5050264;28;20036;-76
2023/04/14 11:13:03;;;;;;;2.90;0.50;;;21.60;77.30;;;;;;5033039;28;20483;-77
2023/04/14 11:16:02;;;;;;;4.00;0.30;;;21.80;75.10;;;;;;5058849;28;20012;-78
2023/04/14 11:18:29;;;;;;;3.55;1.20;;;21.50;74.50;;;;;;4977069;28;20048;-79
2023/04/14 11:21:09;;;;;;;5.22;1.35;;;21.00;74.00;;;;;;5027981;28;20052;-79
2023/04/14 11:23:36;;;;;;;5.53;1.23;;;21.00;74.10;;;;;;5044275;28;20035;-81
2023/04/14 11:26:05;;;;;;;3.45;0.90;;;21.50;73.60;;;;;;5025746;28;20020;-78
2023/04/14 11:28:33;;;;;;;4.05;0.63;;;22.00;72.50;;;;;;5048503;28;20352;-78
2023/04/14 11:31:02;;;;;;;4.55;1.67;;;22.60;71.60;;;;;;5029595;28;20036;-80
2023/04/14 11:33:33;;;;;;;6.03;4.28;;;23.20;70.40;;;;;;5044738;28;20024;-74
2023/04/14 11:36:01;;;;;;;6.88;1.60;;;23.10;67.90;;;;;;5045894;28;20040;-75
2023/04/14 11:38:28;;;;;;;2.50;0.77;;;22.80;67.20;;;;;;5049391;28;20032;-76
2023/04/14 11:40:55;;;;;;;4.38;0.82;;;22.90;67.00;;;;;;5049658;28;20040;-74
2023/04/14 11:43:23;;;;;;;3.60;0.90;;;22.70;66.20;;;;;;5008877;28;20048;-74
2023/04/14 11:45:50;;;;;;;3.80;0.75;;;22.10;65.00;;;;;;5043139;28;20036;-74
2023/04/14 11:48:19;;;;;;;2.72;0.57;;;21.30;66.20;;;;;;5030803;28;20031;-77
2023/04/14 11:50:47;;;;;;;2.40;0.60;;;20.90;68.20;;;;;;5028331;28;20070;-77
2023/04/14 11:53:16;;;;;;;3.90;0.75;;;20.90;68.00;;;;;;5045660;28;20456;-77
2023/04/14 11:55:47;;;;;;;7.32;0.90;;;20.40;68.00;;;;;;5026126;28;20032;-77
2023/04/14 11:58:19;;;;;;;4.32;0.70;;;19.60;68.20;;;;;;5027655;28;20040;-77
2023/04/14 12:00:48;;;;;;;4.22;0.68;;;19.10;69.40;;;;;;5048436;28;20025;-78
2023/04/14 12:03:15;;;;;;;3.63;0.70;;;19.90;70.00;;;;;;5007520;28;20508;-75
2023/04/14 12:05:41;;;;;;;3.25;0.80;;;21.10;69.80;;;;;;5044407;28;20032;-74
2023/04/14 12:08:08;;;;;;;4.35;0.98;;;22.30;68.40;;;;;;5030684;28;20420;-77
2023/04/14 12:10:36;;;;;;;4.93;0.82;;;23.10;65.90;;;;;;5026261;28;20401;-74
2023/04/14 12:13:03;;;;;;;4.93;1.30;;;23.80;64.80;;;;;;5025288;28;20036;-75
2023/04/14 12:15:37;;;;;;;5.72;0.88;;;24.00;62.90;;;;;;5006573;28;20056;-74
2023/04/14 12:18:09;;;;;;;4.70;0.85;;;23.80;62.10;;;;;;5027397;28;20048;-75
2023/04/14 12:20:46;;;;;;;6.35;0.93;;;23.60;62.50;;;;;;5027431;28;20052;-73
2023/04/14 12:23:14;;;;;;;6.13;1.40;;;24.00;62.90;;;;;;5025080;28;20040;-74
2023/04/14 12:25:40;;;;;;;6.35;1.08;;;24.40;62.00;;;;;;5043328;28;20024;-75
2023/04/14 12:28:07;;;;;;;3.85;0.95;;;23.80;60.90;;;;;;5048159;28;20033;-76
2023/04/14 12:30:35;;;;;;;4.53;0.95;;;23.60;61.30;;;;;;5046297;28;20029;-76
2023/04/14 12:33:12;;;;;;;3.08;0.77;;;24.20;60.20;;;;;;5046588;28;20091;-74
2023/04/14 12:35:39;;;;;;;6.07;1.27;;;24.50;59.10;;;;;;5006570;28;20369;-76
2023/04/14 12:38:13;;;;;;;4.25;0.90;;;24.60;58.20;;;;;;5008744;28;20037;-74
2023/04/14 12:40:42;;;;;;;4.20;0.80;;;24.70;56.70;;;;;;5048166;28;20032;-77
2023/04/14 12:43:09;;;;;;;4.20;1.00;;;24.80;56.50;;;;;;5024083;28;20032;-76
2023/04/14 12:45:42;;;;;;;2.70;0.70;;;25.30;56.20;;;;;;5040750;28;20028;-76
2023/04/14 12:48:14;;;;;;;3.55;1.10;;;25.90;56.00;;;;;;5011995;28;21035;-74
2023/04/14 12:50:42;;;;;;;3.75;0.75;;;26.70;55.20;;;;;;5026528;28;20029;-75
2023/04/14 12:53:28;;;;;;;4.75;0.70;;;27.20;53.40;;;;;;5049733;28;20039;-74
2023/04/14 12:56:05;;;;;;;2.97;0.70;;;27.60;53.00;;;;;;5024878;28;20467;-77
2023/04/14 12:58:39;;;;;;;4.10;0.82;;;27.10;52.80;;;;;;5027420;28;20574;-77
2023/04/14 13:01:06;;;;;;;4.05;0.70;;;27.00;52.00;;;;;;5046283;28;20064;-77
2023/04/14 13:03:44;;;;;;;4.25;1.08;;;25.70;50.90;;;;;;5004955;28;20079;-74